createdAt,value
2023-05-08T00:02:11.904Z,78.59
2023-05-08T00:05:14.626Z,77.78
2023-05-08T00:08:18.912Z,77.04
2023-05-08T00:11:21.557Z,77.37
2023-05-08T00:14:23.711Z,78.52
2023-05-08T00:17:26.514Z,78.14
2023-05-08T00:20:28.969Z,77.44
2023-05-08T00:23:31.450Z,77.82
2023-05-08T00:26:33.756Z,78.49
2023-05-08T00:29:36.393Z,78.03
2023-05-08T00:32:38.603Z,77.42
2023-05-08T00:35:42.890Z,76.51
2023-05-08T00:38:45.094Z,75.50
2023-05-08T00:41:47.735Z,75.02
2023-05-08T00:44:49.948Z,75.29
2023-05-08T00:47:52.693Z,76.46
2023-05-08T00:50:55.819Z,76.22
2023-05-08T00:53:59.666Z,75.90
2023-05-08T00:57:02.893Z,76.35
2023-05-08T01:00:06.254Z,77.07
2023-05-08T01:03:09.445Z,76.50
2023-05-08T01:06:12.264Z,77.69
2023-05-08T01:09:14.478Z,77.00
2023-05-08T01:12:30.670Z,78.71
2023-05-08T01:15:50.902Z,77.76
2023-05-08T01:19:16.470Z,79.46
2023-05-08T01:22:43.986Z,78.79
2023-05-08T01:26:17.207Z,77.76
2023-05-08T01:29:57.089Z,79.17
2023-05-08T01:33:14.313Z,78.45
2023-05-08T01:36:46.743Z,76.09
2023-05-08T01:39:55.264Z,75.27
2023-05-08T01:43:08.074Z,75.11
2023-05-08T01:46:16.819Z,75.48
2023-05-08T01:49:26.302Z,75.84
2023-05-08T01:52:35.400Z,75.64
2023-05-08T01:55:40.244Z,75.97
2023-05-08T01:58:44.554Z,76.10
2023-05-08T02:01:48.183Z,75.67
2023-05-08T02:04:53.580Z,74.99
2023-05-08T02:07:57.133Z,75.06
2023-05-08T02:11:00.929Z,74.74
2023-05-08T02:14:04.880Z,74.64
2023-05-08T02:17:10.715Z,75.16
2023-05-08T02:20:15.325Z,75.66
2023-05-08T02:23:19.478Z,75.82
2023-05-08T02:26:23.355Z,75.05
2023-05-08T02:29:27.274Z,75.08
2023-05-08T02:32:31.017Z,75.56
2023-05-08T02:35:35.332Z,76.90
2023-05-08T02:38:42.050Z,77.44
2023-05-08T02:41:45.264Z,77.44
2023-05-08T02:44:47.566Z,77.75
2023-05-08T02:48:14.800Z,78.09
2023-05-08T02:51:39.601Z,80.12
2023-05-08T02:55:15.005Z,81.40
2023-05-08T02:58:24.925Z,82.43
2023-05-08T03:01:42.130Z,83.23
2023-05-08T03:04:49.778Z,84.67
2023-05-08T03:07:55.795Z,85.54
2023-05-08T03:11:01.747Z,86.32
2023-05-08T03:14:09.877Z,87.23
2023-05-08T03:17:16.434Z,88.17
2023-05-08T03:20:21.200Z,88.99
2023-05-08T03:23:26.521Z,90.02
2023-05-08T03:26:29.859Z,90.06
2023-05-08T03:29:33.907Z,89.79
2023-05-08T03:32:37.705Z,90.72
2023-05-08T03:35:40.192Z,90.93
2023-05-08T03:38:43.402Z,91.16
2023-05-08T03:41:45.968Z,91.38
2023-05-08T03:44:51.419Z,91.22
2023-05-08T03:47:54.186Z,90.06
2023-05-08T03:50:58.580Z,89.81
2023-05-08T03:54:01.028Z,90.91
2023-05-08T03:57:03.923Z,88.50
2023-05-08T04:00:19.472Z,87.43
2023-05-08T04:03:33.262Z,87.96
2023-05-08T04:06:51.513Z,87.46
2023-05-08T04:10:06.758Z,86.99
2023-05-08T04:13:14.161Z,86.70
2023-05-08T04:16:21.900Z,78.39
2023-05-08T04:19:26.833Z,72.38
2023-05-08T04:22:32.409Z,70.37
2023-05-08T04:25:38.153Z,69.96
2023-05-08T04:28:41.689Z,68.23
2023-05-08T04:31:44.808Z,67.00
2023-05-08T04:34:47.461Z,67.92
2023-05-08T04:37:49.700Z,66.88
2023-05-08T04:40:52.496Z,65.70
2023-05-08T04:43:54.999Z,65.24
2023-05-08T04:46:57.563Z,66.13
2023-05-08T04:50:02.698Z,66.67
2023-05-08T04:53:06.858Z,66.56
2023-05-08T04:56:09.160Z,64.96
2023-05-08T04:59:12.486Z,62.45
2023-05-08T05:02:15.497Z,63.01
2023-05-08T05:05:18.932Z,62.12
2023-05-08T05:08:21.865Z,62.02
2023-05-08T05:11:25.060Z,62.15
2023-05-08T05:14:28.065Z,62.59
2023-05-08T05:17:31.736Z,62.36
2023-05-08T05:20:34.601Z,63.06
2023-05-08T05:23:37.165Z,62.92
2023-05-08T05:26:39.514Z,62.38
2023-05-08T05:29:43.356Z,61.96
2023-05-08T05:32:46.063Z,61.44
2023-05-08T05:35:48.871Z,62.55
2023-05-08T05:38:51.153Z,62.62
2023-05-08T05:41:53.910Z,61.44
2023-05-08T05:44:57.061Z,61.11
2023-05-08T05:48:00.108Z,60.08
2023-05-08T05:51:03.562Z,60.55
2023-05-08T05:54:06.441Z,61.18
2023-05-08T05:57:10.233Z,60.85
2023-05-08T06:00:13.954Z,60.30
2023-05-08T06:03:16.374Z,60.80
2023-05-08T06:06:19.121Z,60.35
2023-05-08T06:09:22.924Z,60.96
2023-05-08T06:12:28.517Z,60.23
2023-05-08T06:15:31.529Z,59.13
2023-05-08T06:18:44.983Z,58.82
2023-05-08T06:21:47.323Z,59.06
2023-05-08T06:24:53.433Z,58.35
2023-05-08T06:27:56.283Z,59.11
2023-05-08T06:30:59.131Z,57.43
2023-05-08T06:34:01.602Z,56.33
2023-05-08T06:37:04.336Z,55.30
2023-05-08T06:43:13.607Z,56.39
2023-05-08T06:46:16.347Z,55.87
2023-05-08T06:49:18.959Z,56.12
2023-05-08T06:52:21.954Z,54.82
2023-05-08T06:55:24.463Z,54.98
2023-05-08T06:58:26.692Z,54.12
2023-05-08T07:01:29.373Z,53.87
2023-05-08T07:04:32.275Z,51.66
2023-05-08T07:07:34.833Z,51.16
2023-05-08T07:10:37.066Z,51.21
2023-05-08T07:13:39.549Z,47.62
2023-05-08T07:16:41.898Z,46.31
2023-05-08T07:19:44.419Z,44.60
2023-05-08T07:22:46.618Z,44.97
2023-05-08T07:25:49.888Z,45.81
2023-05-08T07:28:54.156Z,43.41
2023-05-08T07:31:56.737Z,41.65
2023-05-08T07:34:58.944Z,40.59
2023-05-08T07:38:01.728Z,42.70
2023-05-08T07:41:05.391Z,42.08
2023-05-08T07:44:09.621Z,42.84
2023-05-08T07:47:12.580Z,44.31
2023-05-08T07:50:15.759Z,43.82
2023-05-08T07:53:18.117Z,45.28
2023-05-08T07:56:23.055Z,44.13
2023-05-08T07:59:25.537Z,44.60
2023-05-08T08:02:29.300Z,46.56
2023-05-08T08:05:32.017Z,45.93
2023-05-08T08:08:34.220Z,46.34
2023-05-08T08:11:36.706Z,46.43
2023-05-08T08:14:38.993Z,47.75
2023-05-08T08:17:41.808Z,48.15
2023-05-08T08:20:44.833Z,48.34
2023-05-08T08:23:47.924Z,49.30
2023-05-08T08:26:50.360Z,48.70
2023-05-08T08:30:04.536Z,48.30
2023-05-08T08:33:17.567Z,47.49
2023-05-08T08:36:21.553Z,47.92
2023-05-08T08:39:23.874Z,49.19
2023-05-08T08:42:26.779Z,47.73
2023-05-08T08:45:29.451Z,46.77
2023-05-08T08:48:32.219Z,46.77
2023-05-08T08:51:50.292Z,47.17
2023-05-08T08:54:55.317Z,48.19
2023-05-08T08:58:23.039Z,46.02
2023-05-08T09:01:29.244Z,47.59
2023-05-08T09:04:32.261Z,45.76
2023-05-08T09:07:35.768Z,45.47
2023-05-08T09:10:38.014Z,43.46
2023-05-08T09:13:41.113Z,40.72
2023-05-08T09:16:43.796Z,40.58
2023-05-08T09:19:49.273Z,40.02
2023-05-08T09:22:52.851Z,35.89
2023-05-08T09:25:55.401Z,34.26
2023-05-08T09:29:18.627Z,30.45
2023-05-08T09:32:21.388Z,28.12
2023-05-08T09:35:36.478Z,28.99
2023-05-08T09:38:40.729Z,27.35
2023-05-08T09:41:57.760Z,25.29
2023-05-08T09:45:00.297Z,25.67
2023-05-08T09:48:02.540Z,26.06
2023-05-08T09:51:08.273Z,24.82
2023-05-08T09:54:18.061Z,27.08
2023-05-08T09:57:21.469Z,25.29
2023-05-08T10:00:25.775Z,24.46
2023-05-08T10:03:48.387Z,25.09
2023-05-08T10:07:00.973Z,23.43
2023-05-08T10:10:05.884Z,22.17
2023-05-08T10:13:08.226Z,24.29
2023-05-08T10:16:18.604Z,22.49
2023-05-08T10:19:24.029Z,22.71
2023-05-08T10:22:28.582Z,22.55
2023-05-08T10:25:37.886Z,21.15
2023-05-08T10:28:49.243Z,21.79
2023-05-08T10:31:55.498Z,20.61
2023-05-08T10:35:05.557Z,19.86
2023-05-08T10:38:09.678Z,20.06
2023-05-08T10:41:13.667Z,23.59
2023-05-08T10:44:16.630Z,23.11
2023-05-08T10:47:37.410Z,24.83
2023-05-08T10:51:01.682Z,23.79
2023-05-08T10:54:13.031Z,21.28
2023-05-08T11:01:03.697Z,21.22
2023-05-08T11:04:21.780Z,20.13
2023-05-08T11:07:50.552Z,20.88
2023-05-08T11:11:07.881Z,19.23
2023-05-08T11:14:20.226Z,20.47
2023-05-08T11:17:24.519Z,22.51
2023-05-08T11:20:55.940Z,21.58
2023-05-08T11:24:41.124Z,22.42
2023-05-08T11:27:50.662Z,21.50
2023-05-08T11:30:56.531Z,20.52
2023-05-08T11:34:00.173Z,22.27
2023-05-08T11:37:03.232Z,20.19
2023-05-08T11:40:26.873Z,21.14
2023-05-08T11:43:38.304Z,20.62
2023-05-08T11:46:51.482Z,20.34
2023-05-08T11:49:55.768Z,21.84
2023-05-08T11:52:58.433Z,20.24
2023-05-08T11:56:01.177Z,20.87
2023-05-08T11:59:04.647Z,21.00
2023-05-08T12:02:09.600Z,21.86
2023-05-08T12:05:12.754Z,20.68
2023-05-08T12:08:17.357Z,20.13
2023-05-08T12:11:26.692Z,20.71
2023-05-08T12:14:28.925Z,21.70
2023-05-08T12:17:31.837Z,20.93
2023-05-08T12:20:35.533Z,21.76
2023-05-08T12:23:41.078Z,22.33
2023-05-08T12:26:43.620Z,21.19
2023-05-08T12:29:46.809Z,20.54
2023-05-08T12:32:49.791Z,21.12
2023-05-08T12:36:16.188Z,22.63
2023-05-08T12:39:19.284Z,21.13
2023-05-08T12:42:21.814Z,21.19
2023-05-08T12:45:29.502Z,22.70
2023-05-08T12:48:33.156Z,21.70
2023-05-08T12:51:36.762Z,22.44
2023-05-08T12:54:45.834Z,21.81
2023-05-08T12:57:54.141Z,22.63
2023-05-08T13:01:09.880Z,23.89
2023-05-08T13:04:12.506Z,24.76
2023-05-08T13:07:16.288Z,23.93
2023-05-08T13:10:20.218Z,24.46
2023-05-08T13:13:28.838Z,24.28
2023-05-08T13:16:41.442Z,24.64
2023-05-08T13:19:44.535Z,26.91
2023-05-08T13:22:46.938Z,26.53
2023-05-08T13:25:51.433Z,24.87
2023-05-08T13:28:56.265Z,24.69
2023-05-08T13:32:01.734Z,24.94
2023-05-08T13:35:04.622Z,26.74
2023-05-08T13:38:07.120Z,26.68
2023-05-08T13:41:09.392Z,26.61
2023-05-08T13:44:11.884Z,27.17
2023-05-08T13:47:14.279Z,26.49
2023-05-08T13:50:19.413Z,25.60
2023-05-08T13:53:21.629Z,25.18
2023-05-08T13:56:24.126Z,25.78
2023-05-08T13:59:27.198Z,25.10
2023-05-08T14:02:38.450Z,24.95
2023-05-08T14:05:41.099Z,23.81
2023-05-08T14:08:46.599Z,24.45
2023-05-08T14:11:51.233Z,24.72
2023-05-08T14:14:53.425Z,24.80
2023-05-08T14:17:55.881Z,25.07
2023-05-08T14:20:58.090Z,24.47
2023-05-08T14:24:01.326Z,24.81
2023-05-08T14:27:05.914Z,23.51
2023-05-08T14:30:09.064Z,23.56
2023-05-08T14:33:11.366Z,23.14
2023-05-08T14:36:14.021Z,23.54
2023-05-08T14:39:16.166Z,22.79
2023-05-08T14:42:23.237Z,22.59
2023-05-08T14:45:25.959Z,24.04
2023-05-08T14:48:28.545Z,24.81
2023-05-08T14:51:31.654Z,24.29
2023-05-08T14:54:34.184Z,24.46
2023-05-08T14:57:36.492Z,24.35
2023-05-08T15:00:41.884Z,24.92
2023-05-08T15:03:47.231Z,24.86
2023-05-08T15:06:49.871Z,23.52
2023-05-08T15:09:53.122Z,23.97
2023-05-08T15:12:55.600Z,23.74
2023-05-08T15:15:58.398Z,22.81
2023-05-08T15:19:03.698Z,23.91
2023-05-08T15:22:06.026Z,25.34
2023-05-08T15:25:08.583Z,25.37
2023-05-08T15:28:10.764Z,25.47
2023-05-08T15:31:13.366Z,25.00
2023-05-08T15:34:15.640Z,25.20
2023-05-08T15:37:18.148Z,28.11
2023-05-08T15:40:20.447Z,29.27
2023-05-08T15:43:22.933Z,29.77
2023-05-08T15:46:25.294Z,30.58
2023-05-08T15:49:27.847Z,31.31
2023-05-08T15:52:30.099Z,30.22
2023-05-08T15:55:32.931Z,30.16
2023-05-08T15:58:36.749Z,28.83
2023-05-08T16:01:41.665Z,30.95
2023-05-08T16:04:44.078Z,31.67
2023-05-08T16:07:46.245Z,32.06
2023-05-08T16:10:48.865Z,32.12
2023-05-08T16:13:51.018Z,33.40
2023-05-08T16:16:53.506Z,34.67
2023-05-08T16:19:55.723Z,35.43
2023-05-08T16:22:58.394Z,35.54
2023-05-08T16:26:00.689Z,35.91
2023-05-08T16:29:03.133Z,37.40
2023-05-08T16:32:05.624Z,37.26
2023-05-08T16:35:08.628Z,38.09
2023-05-08T16:38:10.924Z,37.95
2023-05-08T16:41:13.449Z,38.34
2023-05-08T16:44:15.783Z,38.64
2023-05-08T16:47:18.283Z,38.51
2023-05-08T16:50:20.456Z,39.47
2023-05-08T16:53:22.956Z,40.42
2023-05-08T16:56:25.230Z,40.20
2023-05-08T16:59:27.700Z,40.79
2023-05-08T17:02:30.546Z,40.72
2023-05-08T17:05:33.584Z,41.15
2023-05-08T17:08:35.910Z,40.78
2023-05-08T17:11:38.370Z,40.85
2023-05-08T17:14:42.737Z,41.30
2023-05-08T17:17:47.641Z,41.06
2023-05-08T17:20:50.861Z,42.14
2023-05-08T17:23:53.281Z,42.69
2023-05-08T17:26:55.704Z,43.20
2023-05-08T17:29:58.216Z,43.47
2023-05-08T17:33:00.579Z,43.42
2023-05-08T17:36:03.216Z,42.06
2023-05-08T17:39:05.613Z,42.74
2023-05-08T17:42:08.361Z,41.50
2023-05-08T17:45:10.952Z,41.80
2023-05-08T17:48:14.076Z,42.22
2023-05-08T17:51:16.336Z,42.28
2023-05-08T17:54:18.784Z,42.01
2023-05-08T17:57:21.003Z,42.28
2023-05-08T18:00:24.832Z,43.05
2023-05-08T18:03:27.639Z,43.03
2023-05-08T18:06:29.933Z,43.89
2023-05-08T18:09:32.897Z,44.13
2023-05-08T18:12:36.202Z,44.53
2023-05-08T18:15:42.231Z,44.87
2023-05-08T18:18:45.065Z,45.61
2023-05-08T18:21:47.504Z,45.77
2023-05-08T18:24:50.038Z,45.94
2023-05-08T18:27:52.591Z,45.91
2023-05-08T18:30:54.810Z,46.14
2023-05-08T18:33:57.293Z,46.16
2023-05-08T18:36:59.486Z,45.87
2023-05-08T18:40:02.073Z,46.50
2023-05-08T18:43:04.402Z,46.32
2023-05-08T18:46:12.538Z,46.26
2023-05-08T18:49:14.870Z,46.65
2023-05-08T18:52:17.280Z,47.21
2023-05-08T18:55:19.448Z,47.28
2023-05-08T18:58:22.111Z,47.26
2023-05-08T19:01:24.354Z,47.96
2023-05-08T19:04:26.916Z,48.79
2023-05-08T19:07:29.071Z,48.10
2023-05-08T19:10:31.546Z,48.53
2023-05-08T19:13:33.864Z,48.66
2023-05-08T19:16:36.403Z,48.86
2023-05-08T19:19:38.597Z,48.86
2023-05-08T19:22:41.049Z,49.22
2023-05-08T19:25:43.324Z,49.97
2023-05-08T19:28:45.969Z,49.42
2023-05-08T19:31:48.239Z,49.52
2023-05-08T19:34:50.815Z,49.84
2023-05-08T19:37:53.065Z,50.01
2023-05-08T19:40:57.549Z,50.03
2023-05-08T19:44:00.299Z,50.03
2023-05-08T19:47:04.284Z,50.34
2023-05-08T19:50:07.658Z,49.83
2023-05-08T19:53:10.199Z,49.93
2023-05-08T19:56:12.408Z,50.37
2023-05-08T19:59:14.886Z,50.56
2023-05-08T20:02:17.150Z,50.54
2023-05-08T20:05:22.920Z,50.46
2023-05-08T20:08:25.649Z,50.23
2023-05-08T20:11:28.112Z,50.68
2023-05-08T20:14:30.552Z,51.17
2023-05-08T20:17:33.041Z,50.62
2023-05-08T20:20:35.369Z,50.66
2023-05-08T20:23:39.551Z,51.67
2023-05-08T20:26:41.724Z,50.95
2023-05-08T20:29:45.210Z,51.19
2023-05-08T20:32:47.416Z,51.23
2023-05-08T20:35:49.899Z,50.99
2023-05-08T20:38:52.530Z,51.21
2023-05-08T20:41:55.030Z,50.97
2023-05-08T20:44:57.185Z,51.13
2023-05-08T20:47:59.905Z,51.59
2023-05-08T20:51:02.241Z,51.57
2023-05-08T20:54:04.751Z,51.88
2023-05-08T20:57:06.937Z,52.20
2023-05-08T21:00:09.852Z,51.80
2023-05-08T21:03:11.978Z,51.68
2023-05-08T21:06:14.400Z,51.69
2023-05-08T21:09:16.603Z,52.23
2023-05-08T21:12:19.021Z,52.79
2023-05-08T21:15:21.193Z,52.62
2023-05-08T21:18:23.733Z,52.76
2023-05-08T21:21:25.967Z,52.58
2023-05-08T21:24:28.445Z,52.93
2023-05-08T21:27:30.559Z,53.03
2023-05-08T21:30:32.971Z,53.43
2023-05-08T21:33:35.140Z,53.40
2023-05-08T21:36:37.541Z,52.84
2023-05-08T21:39:41.461Z,53.07
2023-05-08T21:42:43.910Z,53.39
2023-05-08T21:45:46.038Z,53.40
2023-05-08T21:48:48.567Z,54.26
2023-05-08T21:51:50.745Z,54.05
2023-05-08T21:54:53.150Z,54.58
2023-05-08T21:57:55.311Z,53.63
2023-05-08T22:00:58.770Z,54.02
2023-05-08T22:04:01.501Z,54.43
2023-05-08T22:07:03.731Z,54.54
2023-05-08T22:10:09.078Z,54.41
2023-05-08T22:13:12.571Z,54.37
2023-05-08T22:16:15.160Z,54.24
2023-05-08T22:19:17.596Z,53.98
2023-05-08T22:22:20.118Z,53.53
2023-05-08T22:25:22.631Z,53.74
2023-05-08T22:28:25.079Z,53.30
2023-05-08T22:31:27.334Z,53.94
2023-05-08T22:34:29.869Z,54.41
2023-05-08T22:37:32.053Z,53.69
2023-05-08T22:40:34.796Z,53.62
2023-05-08T22:43:37.286Z,53.46
2023-05-08T22:46:41.051Z,53.76
2023-05-08T22:49:43.498Z,53.77
2023-05-08T22:52:46.053Z,53.94
2023-05-08T22:55:48.237Z,54.59
2023-05-08T22:58:50.750Z,53.99
2023-05-08T23:01:53.576Z,54.01
2023-05-08T23:04:56.196Z,55.06
2023-05-08T23:07:58.430Z,55.30
2023-05-08T23:11:00.869Z,55.57
2023-05-08T23:14:02.997Z,55.15
2023-05-08T23:17:05.567Z,55.37
2023-05-08T23:20:08.507Z,55.39
2023-05-08T23:23:11.116Z,55.77
2023-05-08T23:26:13.337Z,55.67
2023-05-08T23:29:15.850Z,55.77
2023-05-08T23:32:17.980Z,55.74
2023-05-08T23:35:20.490Z,55.94
2023-05-08T23:38:23.473Z,55.83
2023-05-08T23:41:26.248Z,56.19
2023-05-08T23:44:28.525Z,56.24
2023-05-08T23:47:31.400Z,56.09
2023-05-08T23:50:33.552Z,56.54
2023-05-08T23:53:36.023Z,56.34
2023-05-08T23:56:38.204Z,56.29
2023-05-08T23:59:40.649Z,56.38
